Time;durP1;ratioP1;P1;durP2;ratioP2;P2;SDS_P1;SDS_P2;PMS_P1;PMS_P2;Temp;Humidity;BMP_temperature;BMP_pressure;BME280_temperature;BME280_humidity;BME280_pressure;Samples;Min_cycle;Max_cycle;Signal;HPM_P1;HPM_P2
2023/07/04 00:00:16;;;;;;;19.40;2.85;;;;;;;14.36;100.00;101005.09;4992518;28;20037;-77
2023/07/04 00:02:41;;;;;;;12.85;2.25;;;;;;;13.96;100.00;101016.59;5010498;28;20029;-76
2023/07/04 00:05:07;;;;;;;12.50;2.17;;;;;;;13.75;100.00;101028.31;5010876;28;20103;-76
2023/07/04 00:07:34;;;;;;;20.52;2.55;;;;;;;13.69;100.00;101041.78;5013951;28;20053;-79
2023/07/04 00:10:02;;;;;;;12.60;2.92;;;;;;;13.56;100.00;101037.97;5014225;28;20057;-78
2023/07/04 00:12:27;;;;;;;13.48;2.30;;;;;;;13.52;100.00;101043.97;5004133;28;20406;-77
2023/07/04 00:14:52;;;;;;;10.48;2.30;;;;;;;13.46;100.00;101058.28;5010975;28;20026;-78
2023/07/04 00:17:18;;;;;;;12.85;3.00;;;;;;;13.48;100.00;101050.78;5008825;28;20036;-77
2023/07/04 00:19:44;;;;;;;11.63;2.00;;;;;;;13.50;100.00;101054.97;5018334;28;20535;-77
2023/07/04 00:22:10;;;;;;;10.05;1.92;;;;;;;13.50;100.00;101056.84;5016696;28;20030;-77
2023/07/04 00:24:37;;;;;;;14.60;1.90;;;;;;;13.48;100.00;101062.47;5034679;28;20022;-78
2023/07/04 00:27:03;;;;;;;7.38;1.42;;;;;;;13.51;100.00;101050.41;5023895;28;20025;-77
2023/07/04 00:29:29;;;;;;;11.45;2.03;;;;;;;13.55;100.00;101046.28;5027214;28;20037;-77
2023/07/04 00:31:54;;;;;;;14.48;2.28;;;;;;;13.57;100.00;101055.84;5025506;28;20417;-76
2023/07/04 00:34:20;;;;;;;19.70;2.40;;;;;;;13.56;100.00;101046.09;5022287;28;20084;-77
2023/07/04 00:36:47;;;;;;;18.95;2.13;;;;;;;13.61;100.00;101051.75;5017787;28;20037;-77
2023/07/04 00:39:12;;;;;;;11.13;1.80;;;;;;;13.64;100.00;101066.75;5017939;28;20103;-77
2023/07/04 00:41:38;;;;;;;14.18;2.42;;;;;;;13.67;100.00;101060.94;5016867;28;20465;-77
2023/07/04 00:44:13;;;;;;;10.80;1.63;;;;;;;13.74;100.00;101060.97;5016558;28;20096;-77
2023/07/04 00:46:43;;;;;;;12.65;2.65;;;;;;;13.74;100.00;101058.25;5017536;28;20327;-75
2023/07/04 00:49:30;;;;;;;6.70;1.33;;;;;;;13.69;100.00;101039.94;5000459;28;20072;-77
2023/07/04 00:51:55;;;;;;;;;;;;;;;13.79;100.00;101026.03;4999763;28;20037;-75
2023/07/04 00:54:24;;;;;;;10.03;1.33;;;;;;;13.84;100.00;101010.88;5016134;28;19933;-76
2023/07/04 00:56:53;;;;;;;4.40;1.40;;;;;;;13.94;100.00;101001.59;5016785;28;20315;-76
2023/07/04 00:59:20;;;;;;;5.57;1.00;;;;;;;14.00;100.00;100992.66;4999078;28;20541;-76
2023/07/04 01:01:46;;;;;;;9.18;1.42;;;;;;;14.07;100.00;100979.16;4998742;28;20327;-75
2023/07/04 01:04:11;;;;;;;7.78;1.20;;;;;;;14.14;100.00;100985.41;5007071;28;20022;-76
2023/07/04 01:06:47;;;;;;;12.15;1.45;;;;;;;14.17;100.00;100974.22;5006365;28;20029;-75
2023/07/04 01:09:12;;;;;;;5.22;1.10;;;;;;;14.21;100.00;100976.28;4995855;28;20214;-76
2023/07/04 01:11:42;;;;;;;5.43;1.25;;;;;;;14.25;100.00;100966.75;4998951;28;20041;-76
2023/07/04 01:14:24;;;;;;;6.72;1.30;;;;;;;14.28;100.00;100970.91;5011666;28;20018;-76
2023/07/04 01:16:50;;;;;;;3.85;1.40;;;;;;;14.28;100.00;100970.91;5017050;28;20439;-77
2023/07/04 01:19:30;;;;;;;7.35;1.65;;;;;;;14.28;100.00;100960.09;5000045;28;20029;-75
2023/07/04 01:22:11;;;;;;;5.82;1.02;;;;;;;14.32;100.00;100957.78;4992513;28;20030;-75
2023/07/04 01:24:51;;;;;;;5.93;1.00;;;;;;;14.34;100.00;100958.44;4998009;28;20030;-76
2023/07/04 01:27:17;;;;;;;8.45;1.50;;;;;;;14.37;100.00;100964.25;5016224;28;20037;-75
2023/07/04 01:29:43;;;;;;;6.40;1.90;;;;;;;14.34;100.00;100974.69;5012021;28;20460;-76
2023/07/04 01:32:09;;;;;;;13.13;1.50;;;;;;;14.36;100.00;100961.78;5013900;28;20026;-75
2023/07/04 01:34:34;;;;;;;10.80;1.65;;;;;;;14.35;100.00;100955.53;4995247;28;20080;-74
2023/07/04 01:37:01;;;;;;;8.02;1.40;;;;;;;14.38;100.00;100955.13;4996916;28;20034;-76
2023/07/04 01:39:27;;;;;;;8.57;1.60;;;;;;;14.38;100.00;100952.41;5011943;28;20470;-76
2023/07/04 01:41:53;;;;;;;6.57;1.60;;;;;;;14.43;100.00;100959.94;5014263;28;20666;-76
2023/07/04 01:44:18;;;;;;;7.15;1.38;;;;;;;14.42;100.00;100948.25;4996556;28;20041;-74
2023/07/04 01:46:44;;;;;;;6.10;1.50;;;;;;;14.46;100.00;100960.34;4996048;28;20034;-75
2023/07/04 01:49:10;;;;;;;8.05;1.70;;;;;;;14.50;100.00;100953.47;4995546;28;20038;-74
2023/07/04 01:51:38;;;;;;;5.53;1.13;;;;;;;14.54;100.00;100955.81;5012460;28;20478;-75
2023/07/04 01:54:05;;;;;;;5.78;1.10;;;;;;;14.55;100.00;100954.78;5013462;28;20029;-75
2023/07/04 01:56:32;;;;;;;6.80;1.20;;;;;;;14.59;100.00;100956.03;5011543;28;20326;-75
2023/07/04 01:58:57;;;;;;;10.82;1.55;;;;;;;14.61;100.00;100962.06;5011924;28;20041;-74
2023/07/04 02:01:23;;;;;;;11.75;1.55;;;;;;;14.59;100.00;100954.16;5009531;28;20026;-74
2023/07/04 02:03:48;;;;;;;11.10;1.33;;;;;;;14.61;100.00;100957.50;5011591;28;20041;-74
2023/07/04 02:06:15;;;;;;;5.55;1.50;;;;;;;14.68;100.00;100943.94;4994102;28;20373;-76
2023/07/04 02:08:40;;;;;;;12.00;1.60;;;;;;;14.74;100.00;100948.53;5012892;28;20032;-74
2023/07/04 02:11:06;;;;;;;7.57;1.40;;;;;;;14.79;100.00;100940.63;5012562;28;20453;-75
2023/07/04 02:13:32;;;;;;;6.32;1.20;;;;;;;14.82;100.00;100933.94;5012299;28;20044;-76
2023/07/04 02:15:57;;;;;;;8.60;1.80;;;;;;;14.84;100.00;100932.72;5012463;28;20544;-76
2023/07/04 02:18:22;;;;;;;10.23;2.00;;;;;;;14.86;100.00;100940.63;4994797;28;20034;-75
2023/07/04 02:20:48;;;;;;;12.73;2.05;;;;;;;14.87;100.00;100939.59;5012036;28;20080;-75
2023/07/04 02:23:13;;;;;;;6.38;1.35;;;;;;;14.91;100.00;100948.97;5012579;28;20477;-75
2023/07/04 02:25:40;;;;;;;13.30;2.20;;;;;;;14.90;100.00;100947.28;5012342;28;20290;-74
2023/07/04 02:28:05;;;;;;;7.60;1.40;;;;;;;14.89;100.00;100954.59;5012115;28;20025;-75
2023/07/04 02:30:31;;;;;;;11.68;1.77;;;;;;;14.89;100.00;100957.31;4995116;28;20040;-76
2023/07/04 02:32:56;;;;;;;11.95;1.95;;;;;;;14.82;100.00;100956.47;5012327;28;20026;-75
2023/07/04 02:35:21;;;;;;;17.35;2.40;;;;;;;14.77;100.00;100963.53;5011892;28;20053;-76
2023/07/04 02:37:47;;;;;;;16.30;2.20;;;;;;;14.73;100.00;100968.56;5001001;28;20113;-76
2023/07/04 02:40:12;;;;;;;9.15;1.80;;;;;;;14.67;100.00;100956.66;5012178;28;20022;-75
2023/07/04 02:42:37;;;;;;;12.00;1.65;;;;;;;14.63;100.00;100963.53;4994868;28;20120;-75
2023/07/04 02:45:06;;;;;;;10.32;2.13;;;;;;;14.62;100.00;100964.56;5012546;28;20072;-76
2023/07/04 02:47:32;;;;;;;13.73;2.63;;;;;;;14.65;100.00;100968.75;5012324;28;20065;-75
2023/07/04 02:49:57;;;;;;;13.82;2.33;;;;;;;14.65;100.00;100966.88;5012755;28;20052;-75
2023/07/04 02:52:24;;;;;;;8.98;1.90;;;;;;;14.63;100.00;100963.53;5013259;28;20034;-75
2023/07/04 02:54:50;;;;;;;10.98;1.65;;;;;;;14.61;100.00;100954.78;5011812;28;20354;-74
2023/07/04 02:57:16;;;;;;;8.90;1.63;;;;;;;14.60;100.00;100949.56;5012464;28;20045;-75
2023/07/04 02:59:41;;;;;;;10.77;2.28;;;;;;;14.62;100.00;100950.19;5011607;28;20022;-75
2023/07/04 03:02:07;;;;;;;8.93;1.70;;;;;;;14.63;100.00;100949.16;5012444;28;20433;-75
2023/07/04 03:04:32;;;;;;;11.85;2.25;;;;;;;14.61;100.00;100956.66;5012026;28;20515;-75
2023/07/04 03:06:57;;;;;;;13.73;2.78;;;;;;;14.59;100.00;100946.03;5011572;28;20038;-75
2023/07/04 03:09:23;;;;;;;8.10;1.55;;;;;;;14.56;100.00;100948.28;5005492;28;20041;-74
2023/07/04 03:11:48;;;;;;;8.10;1.90;;;;;;;14.51;100.00;100954.31;5011523;28;20092;-74
2023/07/04 03:14:14;;;;;;;16.10;2.15;;;;;;;14.49;100.00;100950.97;5011357;28;20030;-75
2023/07/04 03:16:39;;;;;;;10.02;1.77;;;;;;;14.47;100.00;100953.06;5011575;28;20022;-75
2023/07/04 03:19:05;;;;;;;12.10;1.85;;;;;;;14.46;100.00;100954.09;4994980;28;20404;-75
2023/07/04 03:21:30;;;;;;;10.60;2.10;;;;;;;14.48;100.00;100952.00;5013764;28;20362;-76
2023/07/04 03:23:55;;;;;;;14.90;1.88;;;;;;;14.51;100.00;100965.16;5013365;28;20029;-76
2023/07/04 03:26:20;;;;;;;13.82;2.38;;;;;;;14.54;100.00;100951.22;5013092;28;20040;-77
2023/07/04 03:28:46;;;;;;;16.73;2.30;;;;;;;14.54;100.00;100964.78;5014180;28;20030;-76
2023/07/04 03:31:11;;;;;;;9.27;1.88;;;;;;;14.57;100.00;100958.94;5011254;28;20147;-75
2023/07/04 03:33:36;;;;;;;14.85;2.58;;;;;;;14.56;100.00;100957.28;5010624;28;20160;-76
2023/07/04 03:36:02;;;;;;;11.90;2.08;;;;;;;14.56;100.00;100961.84;5010327;28;20037;-75
2023/07/04 03:38:28;;;;;;;14.80;1.95;;;;;;;14.58;100.00;100966.00;5011113;28;20120;-76
2023/07/04 03:40:53;;;;;;;15.95;1.85;;;;;;;14.56;100.00;100954.56;4992097;28;20051;-75
2023/07/04 03:43:19;;;;;;;11.55;2.22;;;;;;;14.56;100.00;100957.28;4992209;28;20046;-75
2023/07/04 03:45:45;;;;;;;10.80;1.92;;;;;;;14.55;100.00;100960.19;5009984;28;20040;-76
2023/07/04 03:48:10;;;;;;;12.07;2.13;;;;;;;14.54;100.00;100959.34;5007907;28;20033;-76
2023/07/04 03:50:37;;;;;;;14.35;2.70;;;;;;;14.55;100.00;100965.59;4992263;28;20080;-76
2023/07/04 03:53:02;;;;;;;12.25;2.10;;;;;;;14.54;100.00;100959.34;5009564;28;20088;-77
2023/07/04 03:55:28;;;;;;;8.93;1.77;;;;;;;14.58;100.00;100962.47;5009765;28;20090;-76
2023/07/04 03:57:53;;;;;;;11.93;2.13;;;;;;;14.58;100.00;100960.59;4989868;28;20398;-76
2023/07/04 04:00:19;;;;;;;13.98;2.40;;;;;;;14.59;100.00;100956.03;5008555;28;20060;-75
2023/07/04 04:02:44;;;;;;;10.07;1.70;;;;;;;14.63;100.00;100963.53;5007573;28;21333;-76
2023/07/04 04:05:09;;;;;;;16.08;1.92;;;;;;;14.66;100.00;100960.41;4991129;28;20478;-76
2023/07/04 04:07:35;;;;;;;12.95;2.40;;;;;;;14.69;100.00;100959.16;5007417;28;20119;-76
2023/07/04 04:10:00;;;;;;;13.15;1.92;;;;;;;14.70;100.00;100958.13;5009889;28;20128;-76
2023/07/04 04:12:26;;;;;;;14.57;2.28;;;;;;;14.73;100.00;100960.44;5011660;28;20101;-76
2023/07/04 04:14:51;;;;;;;15.32;2.45;;;;;;;14.76;100.00;100968.13;5010035;28;20409;-76
2023/07/04 04:17:17;;;;;;;9.88;1.88;;;;;;;14.76;100.00;100961.88;5009888;28;20109;-76
2023/07/04 04:19:42;;;;;;;14.52;2.47;;;;;;;14.78;100.00;100966.06;5010066;28;20034;-76
2023/07/04 04:22:08;;;;;;;10.60;1.88;;;;;;;14.80;100.00;100968.56;5009927;28;20389;-75
2023/07/04 04:24:36;;;;;;;11.35;1.90;;;;;;;14.83;100.00;100966.28;5010055;28;20064;-76
2023/07/04 04:27:03;;;;;;;13.55;2.00;;;;;;;14.86;100.00;100965.84;5009135;28;20385;-76
2023/07/04 04:29:28;;;;;;;11.90;1.98;;;;;;;14.87;100.00;100963.97;4992694;28;20608;-76
2023/07/04 04:31:55;;;;;;;14.90;2.40;;;;;;;14.87;100.00;100974.81;5009852;28;20033;-75
2023/07/04 04:34:22;;;;;;;14.23;2.08;;;;;;;14.88;100.00;100971.06;4991480;28;20364;-76
2023/07/04 04:36:48;;;;;;;9.07;1.67;;;;;;;14.88;100.00;100971.06;5009502;28;20061;-76
2023/07/04 04:39:13;;;;;;;19.05;2.40;;;;;;;14.85;100.00;100972.31;5010003;28;21069;-76
2023/07/04 04:41:39;;;;;;;20.05;2.28;;;;;;;14.86;100.00;100978.56;5008865;28;20025;-76
2023/07/04 04:44:05;;;;;;;12.00;1.85;;;;;;;14.86;100.00;100978.56;5010064;28;20060;-76
2023/07/04 04:46:31;;;;;;;13.02;1.63;;;;;;;14.85;100.00;100972.31;5009399;28;20385;-76
2023/07/04 04:49:02;;;;;;;19.35;2.35;;;;;;;14.90;100.00;100971.69;5010556;28;20044;-76
2023/07/04 04:51:28;;;;;;;13.02;2.15;;;;;;;14.91;100.00;100984.22;5013208;28;20045;-76
2023/07/04 04:53:53;;;;;;;11.70;2.10;;;;;;;14.97;100.00;100979.84;5012693;28;20026;-75
2023/07/04 04:56:18;;;;;;;10.63;1.95;;;;;;;15.03;100.00;100979.81;5012458;28;20408;-76
2023/07/04 04:58:44;;;;;;;13.40;2.03;;;;;;;15.11;100.00;100976.94;5009515;28;20485;-76
2023/07/04 05:01:17;;;;;;;14.45;2.40;;;;;;;15.24;100.00;100980.66;5007770;28;20025;-75
2023/07/04 05:03:46;;;;;;;19.92;2.65;;;;;;;15.33;100.00;100980.25;5011438;28;20397;-75
2023/07/04 05:06:12;;;;;;;14.05;1.90;;;;;;;15.42;100.00;100983.56;4996059;28;20105;-75
2023/07/04 05:08:38;;;;;;;15.75;2.13;;;;;;;15.49;100.00;100978.16;5014561;28;20034;-75
2023/07/04 05:11:07;;;;;;;8.98;1.85;;;;;;;15.47;100.00;100986.47;4993638;28;20044;-75
2023/07/04 05:13:37;;;;;;;11.07;2.50;;;;;;;15.50;100.00;100980.63;4996681;28;20109;-76
2023/07/04 05:16:08;;;;;;;12.20;1.90;;;;;;;15.50;100.00;100986.06;5014148;28;20022;-75
2023/07/04 05:18:34;;;;;;;9.00;2.15;;;;;;;15.52;100.00;100989.41;5012882;28;20033;-76
2023/07/04 05:21:08;;;;;;;12.38;2.25;;;;;;;15.52;100.00;100988.56;5011537;28;20161;-76
2023/07/04 05:23:35;;;;;;;19.63;2.67;;;;;;;15.50;100.00;100983.34;5003406;28;20038;-77
2023/07/04 05:26:13;;;;;;;12.52;2.10;;;;;;;15.51;100.00;100982.31;5013318;28;20702;-76
2023/07/04 05:28:39;;;;;;;10.27;2.22;;;;;;;15.49;100.00;100984.41;4992816;28;20042;-76
2023/07/04 05:31:10;;;;;;;12.00;2.53;;;;;;;15.55;100.00;100994.41;5011132;28;20499;-76
2023/07/04 05:36:06;;;;;;;13.75;3.05;;;;;;;15.71;100.00;100993.16;5008533;28;20022;-78
2023/07/04 05:38:32;;;;;;;13.75;2.33;;;;;;;15.80;100.00;100997.31;5008203;28;20073;-76
2023/07/04 05:40:57;;;;;;;14.32;2.67;;;;;;;15.96;100.00;100990.59;5012673;28;20030;-77
2023/07/04 05:43:22;;;;;;;10.35;2.17;;;;;;;16.06;100.00;100989.28;5010301;28;20080;-77
2023/07/04 05:45:52;;;;;;;10.85;2.08;;;;;;;16.13;100.00;100999.06;4989353;28;20030;-77
2023/07/04 05:48:17;;;;;;;13.80;2.42;;;;;;;16.22;100.00;100999.69;5013814;28;20022;-76
2023/07/04 05:50:55;;;;;;;13.82;2.28;;;;;;;16.37;100.00;101008.38;5011318;28;20025;-76
2023/07/04 05:53:23;;;;;;;13.20;3.13;;;;;;;16.41;100.00;101009.63;5007039;28;20065;-77
2023/07/04 05:55:49;;;;;;;14.60;2.47;;;;;;;16.55;100.00;101004.94;5010800;28;20030;-76
2023/07/04 05:58:14;;;;;;;16.65;2.72;;;;;;;16.82;100.00;101005.63;5001982;28;20441;-77
2023/07/04 06:00:40;;;;;;;15.52;2.42;;;;;;;17.03;100.00;101001.72;5013926;28;20052;-78
2023/07/04 06:03:05;;;;;;;10.82;2.20;;;;;;;17.03;100.00;101000.91;5009277;28;20346;-76
2023/07/04 06:05:38;;;;;;;16.17;2.03;;;;;;;17.22;100.00;100997.22;5013141;28;20018;-75
2023/07/04 06:08:03;;;;;;;13.80;2.55;;;;;;;17.37;100.00;101007.72;5000174;28;20104;-77
2023/07/04 06:10:29;;;;;;;13.18;2.40;;;;;;;17.33;100.00;101018.25;5013781;28;20034;-77
2023/07/04 06:12:54;;;;;;;14.55;2.30;;;;;;;17.10;100.00;101010.66;5015433;28;20096;-76
2023/07/04 06:15:19;;;;;;;15.88;2.95;;;;;;;17.03;100.00;101017.22;5011330;28;20105;-77
2023/07/04 06:17:45;;;;;;;20.17;2.45;;;;;;;16.85;100.00;101024.25;5022556;28;20546;-76
2023/07/04 06:20:11;;;;;;;18.17;2.80;;;;;;;16.76;100.00;101025.50;5021850;28;20038;-77
2023/07/04 06:22:36;;;;;;;17.10;2.70;;;;;;;16.57;100.00;101030.00;5018765;28;20076;-76
2023/07/04 06:25:02;;;;;;;16.55;2.47;;;;;;;16.43;100.00;101042.84;5014206;28;20033;-77
2023/07/04 06:27:28;;;;;;;15.77;2.70;;;;;;;16.35;100.00;101043.09;5031894;28;20384;-77
2023/07/04 06:29:55;;;;;;;13.52;2.40;;;;;;;16.35;100.00;101042.22;5017507;28;20101;-76
2023/07/04 06:32:20;;;;;;;16.38;2.78;;;;;;;16.39;100.00;101044.31;5017765;28;20138;-77
2023/07/04 06:34:46;;;;;;;13.15;2.63;;;;;;;16.36;100.00;101044.75;5015343;28;20493;-77
2023/07/04 06:37:11;;;;;;;12.00;2.08;;;;;;;16.37;100.00;101046.41;5015688;28;20036;-77
2023/07/04 06:39:37;;;;;;;21.17;2.85;;;;;;;16.33;100.00;101039.75;5015682;28;20056;-77
2023/07/04 06:42:02;;;;;;;19.85;2.45;;;;;;;16.31;100.00;101051.88;5014161;28;20503;-77
2023/07/04 06:44:28;;;;;;;14.63;2.22;;;;;;;16.30;100.00;101048.31;5016296;28;20026;-77
2023/07/04 06:46:53;;;;;;;14.88;2.30;;;;;;;16.46;100.00;101047.84;5014343;28;20221;-77
2023/07/04 06:49:18;;;;;;;19.35;2.70;;;;;;;16.82;100.00;101051.84;5016448;28;20029;-77
2023/07/04 06:51:44;;;;;;;12.98;2.38;;;;;;;17.20;100.00;101050.16;5013811;28;20065;-76
2023/07/04 06:54:09;;;;;;;16.42;2.28;;;;;;;17.56;100.00;101046.69;5012995;28;20037;-77
2023/07/04 06:56:36;;;;;;;14.85;2.30;;;;;;;18.01;100.00;101046.53;4993909;28;20132;-77
2023/07/04 06:59:02;;;;;;;26.25;3.05;;;;;;;18.24;100.00;101050.44;5013778;28;20030;-77
2023/07/04 07:01:27;;;;;;;19.52;3.13;;;;;;;17.87;100.00;101044.97;5013411;28;20523;-77
2023/07/04 07:03:53;;;;;;;20.83;3.38;;;;;;;17.87;100.00;101051.25;5015574;28;20355;-78
2023/07/04 07:06:19;;;;;;;14.23;2.88;;;;;;;18.00;100.00;101053.00;5000986;28;20022;-77
2023/07/04 07:08:44;;;;;;;17.52;3.03;;;;;;;18.27;100.00;101039.06;5003826;28;20033;-77
2023/07/04 07:11:12;;;;;;;21.25;2.78;;;;;;;18.75;100.00;101049.19;5014617;28;20040;-77
2023/07/04 07:13:39;;;;;;;15.23;2.85;;;;;;;19.25;100.00;101051.59;5014283;28;20034;-76
2023/07/04 07:16:10;;;;;;;13.18;2.38;;;;;;;19.48;100.00;101057.09;5019238;28;20037;-78
2023/07/04 07:18:36;;;;;;;18.67;3.17;;;;;;;20.02;100.00;101065.19;4996917;28;20424;-77
2023/07/04 07:21:03;;;;;;;13.60;2.55;;;;;;;20.50;100.00;101069.47;5015734;28;20496;-76
2023/07/04 07:23:30;;;;;;;13.80;2.88;;;;;;;20.89;99.52;101082.56;5013930;28;20033;-77
2023/07/04 07:25:57;;;;;;;11.25;2.30;;;;;;;20.87;100.00;101073.78;5012578;28;20026;-77
2023/07/04 07:28:23;;;;;;;20.33;2.50;;;;;;;21.22;98.58;101076.31;5011102;28;20029;-78
2023/07/04 07:31:06;;;;;;;15.02;2.80;;;;;;;20.95;97.31;101078.84;5014210;28;20292;-77
2023/07/04 07:33:32;;;;;;;15.20;3.45;;;;;;;21.29;98.70;101068.78;5022077;28;20327;-77
2023/07/04 07:35:59;;;;;;;13.15;2.45;;;;;;;21.15;95.49;101071.00;5005333;28;20042;-78
2023/07/04 07:38:25;;;;;;;13.65;2.53;;;;;;;21.15;96.81;101068.28;4999846;28;20021;-77
2023/07/04 07:40:54;;;;;;;11.25;2.17;;;;;;;20.63;97.48;101079.34;4995451;28;20018;-78
2023/07/04 07:43:19;;;;;;;12.65;2.78;;;;;;;19.84;99.20;101079.78;5015696;28;20029;-78
2023/07/04 07:45:45;;;;;;;14.02;2.15;;;;;;;19.26;100.00;101065.00;5006736;28;20367;-77
2023/07/04 07:48:12;;;;;;;18.73;2.50;;;;;;;18.77;100.00;101080.63;5005037;28;20030;-77
2023/07/04 07:50:37;;;;;;;10.63;2.42;;;;;;;18.05;100.00;101080.41;5013558;28;20056;-77
2023/07/04 07:53:02;;;;;;;13.90;2.65;;;;;;;18.46;100.00;101080.75;5005270;28;20124;-77
2023/07/04 07:55:28;;;;;;;13.75;2.78;;;;;;;18.97;100.00;101080.34;5014100;28;20405;-77
2023/07/04 07:57:53;;;;;;;12.35;2.88;;;;;;;19.76;100.00;101085.63;5014202;28;20108;-77
2023/07/04 08:00:19;;;;;;;14.98;2.60;;;;;;;20.94;100.00;101091.72;5011748;28;20022;-77
2023/07/04 08:02:44;;;;;;;13.68;2.15;;;;;;;20.91;98.53;101086.72;5011509;28;20407;-77
2023/07/04 08:05:09;;;;;;;18.50;2.75;;;;;;;20.82;99.15;101093.66;5010879;28;20033;-76
2023/07/04 08:07:35;;;;;;;17.85;2.45;;;;;;;20.61;98.73;101086.94;5013837;28;20077;-76
2023/07/04 08:10:00;;;;;;;13.38;2.47;;;;;;;20.93;97.25;101090.06;5012325;28;20107;-77
2023/07/04 08:12:26;;;;;;;13.65;2.80;;;;;;;21.31;94.82;101085.81;5010627;28;20033;-76
2023/07/04 08:14:51;;;;;;;12.30;2.40;;;;;;;21.00;93.49;101089.91;5012809;28;20484;-78
2023/07/04 08:17:17;;;;;;;12.90;2.60;;;;;;;20.88;93.18;101089.09;5013617;28;20026;-77
2023/07/04 08:19:42;;;;;;;10.35;2.05;;;;;;;20.97;93.10;101093.94;5011817;28;20492;-76
2023/07/04 08:22:07;;;;;;;11.45;2.53;;;;;;;20.64;94.96;101086.47;5012457;28;20084;-76
2023/07/04 08:24:33;;;;;;;8.18;2.40;;;;;;;19.99;98.65;101094.91;5012746;28;20026;-77
2023/07/04 08:26:58;;;;;;;15.57;2.47;;;;;;;19.23;100.00;101102.84;5014298;28;20057;-77
2023/07/04 08:29:24;;;;;;;9.93;2.72;;;;;;;18.81;100.00;101091.91;5013729;28;20030;-77
2023/07/04 08:31:50;;;;;;;13.45;2.47;;;;;;;18.86;100.00;101087.41;5012463;28;20129;-76
2023/07/04 08:34:15;;;;;;;11.55;2.55;;;;;;;18.73;100.00;101084.84;5013264;28;20124;-77
2023/07/04 08:36:41;;;;;;;16.58;2.15;;;;;;;19.02;100.00;101102.28;5013297;28;20030;-77
2023/07/04 08:39:09;;;;;;;12.52;2.08;;;;;;;19.06;100.00;101098.06;5021369;28;20477;-77
2023/07/04 08:41:44;;;;;;;16.20;2.22;;;;;;;18.76;100.00;101098.03;5023194;28;20358;-77
2023/07/04 08:44:15;;;;;;;10.70;2.17;;;;;;;18.72;100.00;101101.41;5016552;28;20025;-76
2023/07/04 08:46:47;;;;;;;10.13;2.75;;;;;;;18.86;100.00;101108.41;5004755;28;20038;-77
2023/07/04 08:49:22;;;;;;;15.95;2.63;;;;;;;19.16;100.00;101104.81;5015628;28;20458;-77
2023/07/04 08:51:54;;;;;;;11.40;2.28;;;;;;;19.42;100.00;101112.59;4999917;28;20021;-77
2023/07/04 08:54:20;;;;;;;16.25;2.33;;;;;;;19.43;100.00;101108.81;4999332;28;20033;-77
2023/07/04 08:56:46;;;;;;;12.65;2.30;;;;;;;19.53;100.00;101109.06;5016225;28;20050;-77
2023/07/04 08:59:21;;;;;;;10.48;2.25;;;;;;;19.54;100.00;101107.19;5015534;28;20049;-77
2023/07/04 09:02:03;;;;;;;17.38;2.35;;;;;;;19.58;100.00;101115.72;4999291;28;20097;-77
2023/07/04 09:04:52;;;;;;;14.23;2.95;;;;;;;19.40;100.00;101122.91;5020201;28;20033;-76
2023/07/04 09:07:21;;;;;;;18.80;2.42;;;;;;;19.51;100.00;101121.31;5018064;28;20485;-77
2023/07/04 09:09:54;;;;;;;16.38;2.35;;;;;;;19.45;100.00;101131.25;5015319;28;20137;-76
2023/07/04 09:12:20;;;;;;;10.30;2.22;;;;;;;19.37;100.00;101134.31;5018536;28;20042;-75
2023/07/04 09:14:56;;;;;;;12.52;2.45;;;;;;;19.32;100.00;101139.63;5020843;28;20071;-76
2023/07/04 09:17:38;;;;;;;22.00;3.05;;;;;;;19.32;100.00;101128.72;5002167;28;20091;-77
2023/07/04 09:20:08;;;;;;;13.27;2.33;;;;;;;19.12;100.00;101129.03;5017425;28;20527;-76
2023/07/04 09:22:35;;;;;;;14.68;2.53;;;;;;;19.17;100.00;101136.50;5018095;28;20033;-78
2023/07/04 09:25:02;;;;;;;11.05;2.97;;;;;;;18.98;100.00;101136.53;5003573;28;20037;-77
2023/07/04 09:27:28;;;;;;;10.85;2.20;;;;;;;19.22;100.00;101136.63;4997911;28;20298;-76
2023/07/04 09:29:54;;;;;;;16.73;2.72;;;;;;;19.59;99.39;101145.53;4997541;28;20481;-76
2023/07/04 09:32:19;;;;;;;12.35;2.28;;;;;;;20.03;97.62;101137.03;4998057;28;20036;-77
2023/07/04 09:34:44;;;;;;;14.35;2.17;;;;;;;20.27;95.92;101146.88;4998716;28;20325;-77
2023/07/04 09:37:15;;;;;;;8.77;2.22;;;;;;;20.54;97.51;101135.50;5016380;28;20032;-77
2023/07/04 09:39:44;;;;;;;16.05;2.70;;;;;;;20.84;95.90;101151.69;4994476;28;20053;-77
2023/07/04 09:42:11;;;;;;;9.27;2.25;;;;;;;21.49;94.76;101147.75;4994974;28;20105;-77
2023/07/04 09:44:37;;;;;;;16.80;3.08;;;;;;;21.87;90.63;101155.22;5007546;28;20457;-76
2023/07/04 09:47:04;;;;;;;13.53;2.50;;;;;;;21.34;88.60;101163.88;4999924;28;20355;-77
2023/07/04 09:49:35;;;;;;;22.20;2.80;;;;;;;20.91;91.13;101162.50;5014611;28;20030;-77
2023/07/04 09:52:03;;;;;;;17.75;2.97;;;;;;;20.02;95.13;101166.28;5021407;28;20030;-77
2023/07/04 09:54:34;;;;;;;16.50;2.72;;;;;;;19.66;100.00;101168.13;5021991;28;20018;-75
2023/07/04 09:57:22;;;;;;;13.20;2.30;;;;;;;19.86;100.00;101167.81;5019080;28;20095;-76
2023/07/04 09:59:49;;;;;;;14.85;2.42;;;;;;;20.27;99.71;101174.22;5014361;28;20212;-76
2023/07/04 10:02:18;;;;;;;14.63;2.58;;;;;;;20.33;99.54;101178.75;5013884;28;20120;-77
2023/07/04 10:04:46;;;;;;;14.45;2.25;;;;;;;20.44;100.00;101174.34;4995728;28;20025;-77
2023/07/04 10:07:14;;;;;;;13.82;2.25;;;;;;;20.39;100.00;101171.50;4996073;28;20029;-77
2023/07/04 10:09:44;;;;;;;13.95;2.88;;;;;;;20.36;100.00;101183.75;5013716;28;20301;-77
2023/07/04 10:12:12;;;;;;;18.08;2.65;;;;;;;20.25;100.00;101181.84;4982529;28;20026;-77
2023/07/04 10:14:45;;;;;;;;;;;;;;;19.77;100.00;101177.41;5002150;28;20232;-79
2023/07/04 10:17:18;;;;;;;11.40;3.20;;;;;;;19.69;100.00;101189.50;5017563;28;19909;-78
2023/07/04 10:19:50;;;;;;;16.30;2.67;;;;;;;19.20;100.00;101182.44;5018125;28;20034;-77
2023/07/04 10:22:27;;;;;;;15.55;2.58;;;;;;;19.27;100.00;101173.09;5016503;28;20022;-77
2023/07/04 10:24:55;;;;;;;12.18;2.35;;;;;;;19.14;100.00;101184.19;4995244;28;20034;-77
2023/07/04 10:27:29;;;;;;;14.93;2.60;;;;;;;19.22;100.00;101177.56;4996358;28;20072;-77
2023/07/04 10:29:56;;;;;;;12.02;2.42;;;;;;;19.15;100.00;101183.13;5007945;28;20435;-77
2023/07/04 10:32:22;;;;;;;12.95;2.42;;;;;;;19.55;100.00;101187.19;4997254;28;20030;-77
2023/07/04 10:34:49;;;;;;;12.63;2.67;;;;;;;19.70;100.00;101190.34;4996122;28;20302;-76
2023/07/04 10:37:22;;;;;;;18.10;2.83;;;;;;;19.77;100.00;101185.59;5013443;28;20327;-76
2023/07/04 10:39:47;;;;;;;12.15;2.70;;;;;;;19.94;100.00;101174.81;4990501;28;20486;-78
2023/07/04 10:42:21;;;;;;;17.27;2.65;;;;;;;20.69;100.00;101176.81;4978248;28;20109;-76
2023/07/04 10:44:51;;;;;;;13.27;2.80;;;;;;;21.55;99.48;101181.53;4985217;28;20125;-77
2023/07/04 10:47:34;;;;;;;13.10;2.45;;;;;;;21.49;96.62;101177.88;5001436;28;20068;-77
2023/07/04 10:50:07;;;;;;;11.50;2.10;;;;;;;21.21;96.56;101184.16;5000638;28;20546;-77
2023/07/04 10:52:34;;;;;;;16.20;2.80;;;;;;;21.13;98.08;101182.63;5017864;28;20022;-77
2023/07/04 10:55:00;;;;;;;15.07;2.70;;;;;;;20.83;98.28;101178.22;4999255;28;20026;-78
2023/07/04 10:57:38;;;;;;;13.88;2.55;;;;;;;21.08;99.69;101179.81;5014014;28;20124;-77
2023/07/04 11:00:12;;;;;;;10.55;2.25;;;;;;;20.50;100.00;101183.47;4995282;28;21262;-77
2023/07/04 11:02:41;;;;;;;13.32;2.60;;;;;;;20.43;100.00;101180.88;5011711;28;20037;-76
2023/07/04 11:05:18;;;;;;;9.77;2.63;;;;;;;20.67;100.00;101189.91;5013179;28;20030;-77
2023/07/04 11:07:44;;;;;;;13.20;2.30;;;;;;;20.78;97.77;101182.75;4995114;28;20026;-76
2023/07/04 11:10:12;;;;;;;10.25;2.40;;;;;;;21.19;97.03;101183.56;5012478;28;20032;-77
2023/07/04 11:12:38;;;;;;;8.45;2.47;;;;;;;21.47;93.31;101188.25;5012748;28;20026;-77
2023/07/04 11:15:19;;;;;;;20.95;2.63;;;;;;;21.30;92.92;101193.66;5014314;28;20030;-77